Time;durP1;ratioP1;P1;durP2;ratioP2;P2;SDS_P1;SDS_P2;PMS_P1;PMS_P2;Temp;Humidity;BMP_temperature;BMP_pressure;BME280_temperature;BME280_humidity;BME280_pressure;Samples;Min_cycle;Max_cycle;Signal;HPM_P1;HPM_P2
2021/09/30 00:00:47;;;;;;;18.19;10.14;;;;;;;;;;349639;149;858413;-59
2021/09/30 00:01:50;;;;;;;18.32;11.04;;;;;;;;;;352257;150;856481;-59
2021/09/30 00:02:52;;;;;;;15.93;9.85;;;;;;;;;;355317;148;857142;-59
2021/09/30 00:03:53;;;;;;;16.59;10.19;;;;;;;;;;354884;149;863724;-59
2021/09/30 00:04:55;;;;;;;18.07;10.85;;;;;;;;;;349793;150;863824;-59
2021/09/30 00:05:57;;;;;;;17.86;10.44;;;;;;;;;;351585;148;863658;-59
2021/09/30 00:07:00;;;;;;;18.80;11.40;;;;;;;;;;353441;151;856233;-59
2021/09/30 00:08:02;;;;;;;16.94;11.27;;;;;;;;;;355168;147;855969;-59
2021/09/30 00:09:03;;;;;;;17.07;10.68;;;;;;;;;;357879;147;861342;-59
2021/09/30 00:10:06;;;;;;;18.61;10.46;;;;;;;;;;360538;147;856116;-59
2021/09/30 00:11:13;;;;;;;16.94;10.67;;;;;;;;;;362595;147;863742;-59
2021/09/30 00:12:16;;;;;;;16.57;11.34;;;;;;;;;;358345;147;856979;-59
2021/09/30 00:13:37;;;;;;;19.34;11.01;;;;;;;;;;358045;149;856680;-59
2021/09/30 00:14:28;;;;;;;16.52;10.20;;;;;;;;;;353984;149;856485;-59
2021/09/30 00:15:42;;;;;;;17.85;9.68;;;;;;;;;;351283;151;856936;-59
2021/09/30 00:33:41;;;;;;;15.24;9.73;;;;;;;;;;357643;147;856172;-59
2021/09/30 00:36:00;;;;;;;;;;;;;;;;;;359096;147;855742;-59
2021/09/30 00:41:57;;;;;;;15.86;10.05;;;;;;;;;;357950;148;856066;-59
2021/09/30 00:46:49;;;;;;;14.36;8.44;;;;;;;;;;345872;153;856280;-59
2021/09/30 00:48:05;;;;;;;12.80;8.26;;;;;;;;;;358422;147;863668;-59
2021/09/30 00:49:14;;;;;;;17.29;8.77;;;;;;;;;;356313;150;856412;-59
2021/09/30 00:52:46;;;;;;;15.73;8.06;;;;;;;;;;358035;147;857110;-59
2021/09/30 00:53:45;;;;;;;13.39;8.04;;;;;;;;;;352946;147;856347;-59
2021/09/30 01:19:23;;;;;;;18.04;8.51;;;;;;;5.47;65.53;101493.41;363898;146;864321;-61
2021/09/30 01:46:48;;;;;;;14.27;8.48;;;;;;;4.91;66.70;101501.48;360085;146;856551;-60
2021/09/30 02:18:12;;;;;;;14.79;7.99;;;;;;;5.35;67.40;101498.94;359097;145;856051;-59
2021/09/30 02:18:53;;;;;;;15.66;9.06;;;;;;;5.87;67.16;101483.73;360244;146;856502;-59
2021/09/30 02:19:55;;;;;;;12.66;7.63;;;;;;;5.86;67.12;101495.70;360626;146;864443;-59
2021/09/30 02:22:19;;;;;;;15.36;8.20;;;;;;;5.83;67.38;101498.16;362325;146;857002;-59
2021/09/30 02:27:01;;;;;;;13.11;8.64;;;;;;;5.87;67.52;101489.73;363039;146;863756;-59
2021/09/30 02:28:14;;;;;;;13.90;8.13;;;;;;;5.88;67.60;101490.63;360039;147;856146;-59
2021/09/30 02:30:10;;;;;;;12.19;7.50;;;;;;;5.78;67.75;101489.40;364478;146;864301;-60
2021/09/30 02:38:53;;;;;;;15.68;8.45;;;;;;;5.75;68.32;101489.29;360761;146;856051;-59
2021/09/30 02:58:03;;;;;;;;;;;;;;;5.58;68.78;101488.65;365688;146;855520;-59
2021/09/30 02:58:40;;;;;;;14.03;9.04;;;;;;;5.36;68.65;101485.27;363660;145;863744;-59
2021/09/30 02:59:41;;;;;;;17.56;10.67;;;;;;;5.32;68.67;101488.54;361188;147;855969;-59
2021/09/30 03:00:43;;;;;;;13.38;8.67;;;;;;;5.26;68.81;101484.92;360851;145;856445;-59
2021/09/30 03:01:46;;;;;;;14.89;8.23;;;;;;;5.25;68.78;101495.12;359683;146;856350;-59
2021/09/30 03:02:50;;;;;;;16.00;8.04;;;;;;;5.24;68.77;101494.26;353483;149;856240;-59
2021/09/30 03:03:52;;;;;;;12.28;7.67;;;;;;;5.23;68.38;101491.61;356027;148;863883;-59
2021/09/30 03:04:54;;;;;;;16.05;8.11;;;;;;;5.23;67.96;101484.80;360575;148;856160;-61
2021/09/30 03:05:56;;;;;;;12.95;8.70;;;;;;;5.23;67.78;101495.08;358875;145;856029;-59
2021/09/30 03:06:59;;;;;;;12.99;8.49;;;;;;;5.21;68.11;101482.98;361294;146;856116;-59
2021/09/30 03:08:00;;;;;;;12.21;8.06;;;;;;;5.20;68.09;101483.80;359550;148;863720;-59
2021/09/30 03:09:05;;;;;;;14.08;8.52;;;;;;;5.21;68.04;101494.14;363066;146;863832;-59
2021/09/30 03:10:08;;;;;;;14.51;8.21;;;;;;;5.20;67.81;101489.82;360817;146;863778;-59
2021/09/30 03:11:10;;;;;;;14.72;7.32;;;;;;;5.20;67.67;101488.92;360357;145;863863;-59
2021/09/30 03:12:29;;;;;;;12.81;8.56;;;;;;;5.19;67.22;101493.20;355998;150;856264;-59
2021/09/30 03:13:31;;;;;;;14.27;7.43;;;;;;;5.16;66.93;101487.95;354318;147;856573;-59
2021/09/30 03:14:39;;;;;;;11.55;8.09;;;;;;;5.16;66.93;101487.95;359510;146;856624;-59
2021/09/30 03:15:43;;;;;;;13.22;8.18;;;;;;;5.11;66.84;101490.33;362522;148;855956;-59
2021/09/30 03:16:49;;;;;;;15.54;7.84;;;;;;;5.08;67.23;101485.06;361790;147;864256;-59
2021/09/30 03:17:59;;;;;;;11.38;7.87;;;;;;;5.08;66.82;101494.48;361706;146;856925;-58
2021/09/30 03:18:59;;;;;;;14.56;8.29;;;;;;;5.05;66.57;101484.95;362334;147;856656;-59
2021/09/30 03:20:05;;;;;;;14.50;8.08;;;;;;;5.03;66.93;101490.85;361107;147;856497;-59
2021/09/30 03:23:14;;;;;;;13.20;8.56;;;;;;;5.00;67.48;101486.45;362673;146;863763;-57
2021/09/30 03:24:16;;;;;;;12.53;8.16;;;;;;;4.98;67.79;101490.66;362166;146;856193;-57
2021/09/30 03:25:18;;;;;;;14.60;8.99;;;;;;;4.97;67.47;101491.47;359800;146;856038;-58
2021/09/30 03:26:20;;;;;;;14.09;9.59;;;;;;;4.95;67.47;101485.39;360537;148;856677;-57
2021/09/30 03:27:22;;;;;;;17.12;8.47;;;;;;;4.93;67.81;101494.73;362353;147;856389;-59
2021/09/30 03:28:24;;;;;;;12.98;8.06;;;;;;;4.90;68.09;101490.36;358828;146;856353;-59
2021/09/30 03:29:26;;;;;;;12.83;8.51;;;;;;;4.89;68.08;101483.48;363161;146;856223;-59
2021/09/30 03:30:29;;;;;;;17.49;8.51;;;;;;;4.90;68.24;101489.47;358672;147;856279;-59
2021/09/30 03:31:31;;;;;;;17.21;9.89;;;;;;;4.88;68.57;101485.97;353354;149;857661;-59
2021/09/30 03:32:33;;;;;;;16.35;9.88;;;;;;;4.92;69.04;101490.41;352767;148;856597;-58
2021/09/30 03:33:34;;;;;;;11.75;8.11;;;;;;;4.94;69.16;101486.21;364103;146;856264;-58
2021/09/30 03:34:36;;;;;;;18.41;8.76;;;;;;;4.96;68.28;101492.28;356004;148;863755;-58
2021/09/30 03:35:38;;;;;;;15.94;8.32;;;;;;;;;;361892;146;863772;-59
2021/09/30 03:36:42;;;;;;;16.34;9.49;;;;;;;;;;360876;146;863716;-60
2021/09/30 03:37:43;;;;;;;13.79;8.37;;;;;;;;;;362553;147;856235;-59
2021/09/30 03:38:45;;;;;;;16.21;8.60;;;;;;;;;;362251;145;863848;-59
2021/09/30 03:39:47;;;;;;;11.96;8.08;;;;;;;;;;361852;145;863899;-59
2021/09/30 03:40:49;;;;;;;15.91;8.91;;;;;;;;;;363434;146;864233;-59
2021/09/30 03:41:51;;;;;;;14.82;8.68;;;;;;;;;;359393;146;856546;-59
2021/09/30 03:42:52;;;;;;;12.70;8.46;;;;;;;;;;361051;146;863945;-58
2021/09/30 03:43:54;;;;;;;12.19;8.11;;;;;;;;;;360927;146;863802;-59
2021/09/30 03:44:55;;;;;;;18.79;7.93;;;;;;;;;;362453;146;858091;-59
2021/09/30 03:45:57;;;;;;;15.53;8.41;;;;;;;;;;360590;146;863794;-58
2021/09/30 03:47:00;;;;;;;11.74;7.77;;;;;;;;;;363982;146;863913;-59
2021/09/30 03:48:02;;;;;;;15.14;8.29;;;;;;;;;;362176;146;856596;-57
2021/09/30 03:49:10;;;;;;;12.86;8.65;;;;;;;;;;361476;145;863951;-58
2021/09/30 03:50:14;;;;;;;15.31;8.68;;;;;;;;;;358911;145;863772;-59
2021/09/30 03:51:13;;;;;;;16.51;8.36;;;;;;;;;;360958;148;864605;-59
2021/09/30 03:52:23;;;;;;;10.86;7.49;;;;;;;;;;362291;145;864383;-59
2021/09/30 03:53:25;;;;;;;12.51;7.66;;;;;;;;;;359660;147;856121;-58
2021/09/30 03:55:57;;;;;;;13.37;7.64;;;;;;;;;;361040;145;856013;-59
2021/09/30 03:59:26;;;;;;;12.49;8.34;;;;;;;;;;360510;145;856356;-59
2021/09/30 04:00:27;;;;;;;12.48;8.01;;;;;;;;;;361285;145;856540;-57
2021/09/30 04:01:29;;;;;;;13.96;8.56;;;;;;;;;;359092;145;864536;-59
2021/09/30 04:02:30;;;;;;;17.19;8.91;;;;;;;;;;354408;149;864065;-59
2021/09/30 04:03:32;;;;;;;16.46;8.41;;;;;;;;;;359721;146;863870;-59
2021/09/30 04:04:34;;;;;;;13.16;8.87;;;;;;;;;;361827;145;856292;-59
2021/09/30 04:05:38;;;;;;;16.99;9.01;;;;;;;;;;361148;145;856687;-58
2021/09/30 04:06:41;;;;;;;16.27;7.68;;;;;;;;;;352434;149;856487;-59
2021/09/30 04:07:43;;;;;;;14.46;8.57;;;;;;;;;;354530;145;856191;-59
2021/09/30 04:08:45;;;;;;;12.32;7.83;;;;;;;;;;362463;145;856641;-60
2021/09/30 04:09:46;;;;;;;13.31;8.05;;;;;;;;;;361735;145;863840;-59
2021/09/30 04:10:48;;;;;;;15.15;7.96;;;;;;;;;;362235;145;857168;-59
2021/09/30 04:11:50;;;;;;;15.24;8.42;;;;;;;;;;359342;148;856162;-58
2021/09/30 04:12:51;;;;;;;14.01;7.79;;;;;;;;;;361492;146;858735;-58
2021/09/30 04:13:53;;;;;;;25.64;9.24;;;;;;;;;;360919;146;863966;-58
2021/09/30 04:14:54;;;;;;;14.01;8.48;;;;;;;;;;361322;145;863502;-59
2021/09/30 04:15:56;;;;;;;17.76;8.79;;;;;;;;;;360749;147;856317;-59
2021/09/30 04:16:58;;;;;;;12.29;7.51;;;;;;;;;;360582;146;856542;-58
2021/09/30 04:18:00;;;;;;;15.59;8.46;;;;;;;;;;360289;147;856174;-57
2021/09/30 04:19:01;;;;;;;14.70;8.38;;;;;;;;;;363260;145;857792;-56
2021/09/30 04:20:03;;;;;;;13.70;8.41;;;;;;;;;;361392;147;863951;-57
2021/09/30 04:21:05;;;;;;;13.68;8.31;;;;;;;;;;362035;146;863768;-59
2021/09/30 04:22:06;;;;;;;14.41;8.28;;;;;;;;;;361523;145;856779;-59
2021/09/30 04:23:08;;;;;;;15.32;8.65;;;;;;;;;;361100;147;863941;-59
2021/09/30 04:24:10;;;;;;;16.58;10.01;;;;;;;;;;359342;146;858185;-58
2021/09/30 04:25:11;;;;;;;15.51;8.83;;;;;;;;;;363001;145;856206;-58
2021/09/30 04:26:14;;;;;;;20.88;8.97;;;;;;;;;;357221;146;856718;-59
2021/09/30 04:45:05;;;;;;;13.48;7.76;;;;;;;4.61;67.72;101510.55;371039;141;881456;-57
2021/09/30 04:46:07;;;;;;;22.78;8.69;;;;;;;4.54;67.90;101513.67;366563;144;856529;-57
2021/09/30 04:47:09;;;;;;;15.95;9.52;;;;;;;4.60;67.83;101510.50;363570;144;856111;-57
2021/09/30 04:48:13;;;;;;;17.95;10.09;;;;;;;4.64;67.90;101517.52;363277;145;856576;-58
2021/09/30 04:49:14;;;;;;;15.46;9.59;;;;;;;4.65;68.02;101512.42;363582;144;856544;-58
2021/09/30 04:50:18;;;;;;;19.26;9.99;;;;;;;4.70;68.18;101516.88;360275;144;863798;-59
2021/09/30 04:51:20;;;;;;;16.14;9.69;;;;;;;4.73;68.03;101515.33;363034;144;863812;-58
2021/09/30 04:52:22;;;;;;;20.70;9.94;;;;;;;4.76;68.18;101518.02;365419;145;864590;-59
2021/09/30 04:53:23;;;;;;;20.11;10.51;;;;;;;4.80;68.35;101514.77;362014;144;863609;-59
2021/09/30 04:54:25;;;;;;;17.70;10.20;;;;;;;4.84;68.69;101515.78;364797;144;856459;-56
2021/09/30 04:55:27;;;;;;;20.20;10.19;;;;;;;;;;364030;144;863998;-60
2021/09/30 04:56:30;;;;;;;17.12;10.35;;;;;;;;;;361224;145;864509;-58
2021/09/30 04:57:32;;;;;;;14.25;9.71;;;;;;;;;;364421;144;856150;-58
2021/09/30 04:58:33;;;;;;;19.55;11.63;;;;;;;;;;363461;144;856711;-58
2021/09/30 04:59:35;;;;;;;18.02;11.05;;;;;;;;;;362609;145;856079;-56
2021/09/30 05:00:38;;;;;;;17.59;10.70;;;;;;;;;;364601;144;856777;-58
2021/09/30 05:01:41;;;;;;;21.96;12.43;;;;;;;;;;362253;144;856658;-57
2021/09/30 05:02:46;;;;;;;26.56;13.06;;;;;;;;;;363981;144;856336;-58
2021/09/30 05:03:46;;;;;;;20.67;12.73;;;;;;;;;;362629;146;864264;-58
2021/09/30 05:04:48;;;;;;;19.71;13.09;;;;;;;;;;362888;144;856625;-58
2021/09/30 05:05:49;;;;;;;24.31;12.85;;;;;;;;;;362768;145;863679;-58
2021/09/30 05:06:52;;;;;;;24.46;12.96;;;;;;;;;;363759;144;863736;-58
2021/09/30 05:07:53;;;;;;;24.87;13.47;;;;;;;;;;362976;146;863554;-57
2021/09/30 05:08:59;;;;;;;24.39;13.94;;;;;;;;;;362513;146;856297;-57
2021/09/30 05:10:03;;;;;;;29.00;14.76;;;;;;;;;;363325;144;859638;-56
2021/09/30 05:11:04;;;;;;;26.48;14.33;;;;;;;;;;366042;145;856135;-56
2021/09/30 05:12:08;;;;;;;27.40;14.86;;;;;;;;;;363043;144;857307;-58
2021/09/30 05:13:22;;;;;;;27.49;14.11;;;;;;;;;;363008;145;863718;-57
2021/09/30 05:14:13;;;;;;;27.86;13.69;;;;;;;;;;360880;146;856120;-58
2021/09/30 05:15:15;;;;;;;25.61;11.74;;;;;;;;;;362450;146;856048;-57
2021/09/30 05:16:17;;;;;;;22.79;10.72;;;;;;;;;;364026;144;862049;-58
2021/09/30 05:17:18;;;;;;;20.68;10.00;;;;;;;;;;362911;144;856310;-58
2021/09/30 05:18:20;;;;;;;20.35;10.64;;;;;;;;;;362993;146;858371;-59
2021/09/30 05:19:21;;;;;;;20.03;9.93;;;;;;;;;;362702;144;864459;-57
2021/09/30 05:20:23;;;;;;;16.79;10.33;;;;;;;;;;363682;144;864386;-58
2021/09/30 05:21:25;;;;;;;17.73;10.09;;;;;;;;;;363001;144;856171;-57
2021/09/30 05:22:27;;;;;;;17.86;9.30;;;;;;;;;;362246;148;864027;-57
2021/09/30 05:23:28;;;;;;;18.43;9.31;;;;;;;;;;362957;145;863475;-57
2021/09/30 05:24:30;;;;;;;14.54;8.73;;;;;;;;;;363207;144;864009;-57
2021/09/30 05:25:31;;;;;;;17.23;9.61;;;;;;;;;;365026;146;863724;-58
2021/09/30 05:26:34;;;;;;;18.50;10.11;;;;;;;;;;364670;144;863939;-56
2021/09/30 05:27:35;;;;;;;16.21;9.86;;;;;;;;;;363328;144;856059;-56
2021/09/30 05:28:37;;;;;;;17.24;9.78;;;;;;;;;;363240;144;856671;-58
2021/09/30 05:29:39;;;;;;;17.60;9.97;;;;;;;;;;363317;144;856669;-59
2021/09/30 05:30:41;;;;;;;20.99;11.08;;;;;;;;;;362479;144;856093;-58
2021/09/30 05:31:42;;;;;;;21.74;11.86;;;;;;;;;;362761;146;856321;-57
2021/09/30 05:32:44;;;;;;;21.96;13.47;;;;;;;;;;362449;146;864196;-59
2021/09/30 05:33:45;;;;;;;28.07;13.10;;;;;;;;;;364300;144;863621;-58
2021/09/30 05:34:47;;;;;;;24.24;13.74;;;;;;;;;;363073;144;857333;-58
2021/09/30 05:35:49;;;;;;;23.04;14.52;;;;;;;;;;363978;144;856591;-58
2021/09/30 05:36:50;;;;;;;28.70;16.14;;;;;;;;;;363442;144;864483;-57
2021/09/30 05:37:52;;;;;;;28.24;16.09;;;;;;;;;;362721;145;863712;-57
2021/09/30 05:38:53;;;;;;;39.01;17.50;;;;;;;;;;363399;146;863755;-58
2021/09/30 05:39:55;;;;;;;27.39;15.61;;;;;;;;;;362773;144;857508;-59
2021/09/30 05:40:59;;;;;;;36.14;16.25;;;;;;;;;;362463;145;863816;-59
2021/09/30 05:42:00;;;;;;;29.33;16.16;;;;;;;;;;363362;144;856251;-59
2021/09/30 05:43:04;;;;;;;29.96;16.08;;;;;;;;;;363305;146;863714;-59
2021/09/30 05:44:09;;;;;;;27.66;16.49;;;;;;;;;;362539;144;856594;-59
2021/09/30 05:45:11;;;;;;;26.59;16.38;;;;;;;;;;363423;144;855993;-59
2021/09/30 05:46:15;;;;;;;32.70;16.43;;;;;;;;;;362950;146;856195;-59
2021/09/30 05:47:17;;;;;;;30.70;17.24;;;;;;;;;;364082;146;856688;-58
2021/09/30 05:48:19;;;;;;;33.85;15.95;;;;;;;;;;357781;147;857037;-59
2021/09/30 05:49:21;;;;;;;29.31;15.19;;;;;;;;;;357712;147;863985;-59
2021/09/30 05:50:25;;;;;;;24.04;14.81;;;;;;;;;;363451;146;856440;-59
2021/09/30 05:51:26;;;;;;;27.17;15.48;;;;;;;;;;363163;144;857179;-59
2021/09/30 05:52:28;;;;;;;27.10;16.12;;;;;;;;;;362962;144;856961;-59
2021/09/30 05:53:30;;;;;;;38.68;15.86;;;;;;;;;;363028;146;863905;-59
2021/09/30 05:54:31;;;;;;;29.89;15.25;;;;;;;;;;362997;146;856661;-59
2021/09/30 05:55:33;;;;;;;41.99;16.56;;;;;;;;;;363158;144;863743;-59
2021/09/30 05:56:36;;;;;;;30.99;16.17;;;;;;;;;;365425;146;857662;-59
2021/09/30 05:57:38;;;;;;;30.34;15.76;;;;;;;;;;363466;146;856528;-59
2021/09/30 05:58:39;;;;;;;34.09;15.86;;;;;;;;;;363112;146;863916;-59
2021/09/30 05:59:41;;;;;;;31.91;17.04;;;;;;;;;;363788;146;856032;-59
2021/09/30 06:03:15;;;;;;;31.85;15.72;;;;;;;;;;363745;144;856342;-59
2021/09/30 06:10:58;;;;;;;28.83;13.76;;;;;;;;;;363298;144;864381;-59
2021/09/30 06:12:21;;;;;;;24.88;12.06;;;;;;;;;;363644;146;856102;-58
2021/09/30 06:13:09;;;;;;;27.19;12.79;;;;;;;;;;359255;144;856611;-59
2021/09/30 06:14:13;;;;;;;25.19;14.07;;;;;;;;;;362485;146;856022;-58
2021/09/30 06:15:15;;;;;;;36.97;21.65;;;;;;;;;;363928;144;856072;-58
2021/09/30 06:16:21;;;;;;;22.61;13.26;;;;;;;;;;362344;144;856421;-58
2021/09/30 06:17:22;;;;;;;20.94;11.59;;;;;;;;;;363781;146;856533;-58
2021/09/30 06:18:24;;;;;;;18.68;10.76;;;;;;;;;;362795;144;856730;-59
2021/09/30 06:19:26;;;;;;;23.26;10.71;;;;;;;;;;362832;144;856964;-59
2021/09/30 06:20:28;;;;;;;24.79;11.16;;;;;;;;;;362651;144;863857;-58
2021/09/30 06:21:30;;;;;;;17.31;9.90;;;;;;;;;;363536;146;856202;-59
2021/09/30 06:22:32;;;;;;;16.93;10.94;;;;;;;;;;363445;146;856456;-59
2021/09/30 06:23:33;;;;;;;16.23;10.18;;;;;;;;;;363098;145;857019;-59
2021/09/30 06:24:35;;;;;;;17.20;10.99;;;;;;;;;;363422;146;856526;-59
2021/09/30 06:25:37;;;;;;;17.11;11.01;;;;;;;;;;362899;146;856142;-59
2021/09/30 06:26:39;;;;;;;17.49;10.51;;;;;;;;;;363121;144;863856;-59
2021/09/30 06:27:40;;;;;;;19.19;11.23;;;;;;;;;;363283;146;856132;-59
2021/09/30 06:28:42;;;;;;;20.78;10.41;;;;;;;;;;362938;146;857944;-61
2021/09/30 06:29:44;;;;;;;23.57;11.34;;;;;;;;;;362803;144;863837;-59
2021/09/30 06:30:45;;;;;;;18.73;10.26;;;;;;;;;;363396;144;863646;-59
2021/09/30 06:31:47;;;;;;;23.94;11.02;;;;;;;;;;363667;146;863943;-59
2021/09/30 06:32:49;;;;;;;22.26;10.85;;;;;;;;;;363414;144;864712;-59
2021/09/30 06:33:52;;;;;;;16.99;10.97;;;;;;;;;;363355;144;856362;-59
2021/09/30 06:34:54;;;;;;;16.66;10.96;;;;;;;;;;363163;145;856982;-59
2021/09/30 06:35:56;;;;;;;16.27;11.01;;;;;;;;;;363512;146;855987;-59
2021/09/30 06:36:57;;;;;;;21.01;10.66;;;;;;;;;;362708;146;864262;-59
2021/09/30 06:37:59;;;;;;;16.94;10.96;;;;;;;;;;363521;145;856551;-59
2021/09/30 06:39:00;;;;;;;18.21;10.59;;;;;;;;;;363009;146;856110;-59
2021/09/30 06:40:02;;;;;;;19.31;10.15;;;;;;;;;;363743;144;856032;-59
2021/09/30 06:41:04;;;;;;;15.57;9.36;;;;;;;;;;363449;144;863767;-59
2021/09/30 06:45:31;;;;;;;15.46;9.62;;;;;;;10.41;56.90;101548.59;368786;142;881590;-59
2021/09/30 06:46:34;;;;;;;15.05;10.04;;;;;;;10.36;57.10;101554.53;360292;144;856516;-59
2021/09/30 06:47:37;;;;;;;19.02;10.19;;;;;;;10.42;57.23;101552.94;359248;146;856326;-58
2021/09/30 06:48:38;;;;;;;17.80;9.98;;;;;;;10.49;56.85;101553.09;360567;144;863819;-59
2021/09/30 06:49:40;;;;;;;18.74;9.79;;;;;;;10.48;55.60;101553.94;360109;144;856248;-59
2021/09/30 06:50:43;;;;;;;14.42;9.23;;;;;;;10.53;57.12;101556.59;361040;144;863760;-59
2021/09/30 06:51:44;;;;;;;21.44;9.55;;;;;;;10.56;56.10;101555.79;360895;144;856102;-59
2021/09/30 06:52:46;;;;;;;18.97;9.51;;;;;;;10.63;57.73;101557.64;360662;144;856460;-58
2021/09/30 06:53:48;;;;;;;15.51;9.41;;;;;;;10.65;56.50;101555.95;359938;144;863941;-59
2021/09/30 06:54:50;;;;;;;18.37;9.39;;;;;;;10.70;56.49;101558.64;360824;144;864012;-59
2021/09/30 06:55:52;;;;;;;14.35;8.14;;;;;;;10.70;56.49;101558.64;360867;144;856193;-59
2021/09/30 06:56:55;;;;;;;12.73;7.00;;;;;;;10.76;55.60;101557.02;359664;147;863846;-59
2021/09/30 06:57:57;;;;;;;14.74;8.62;;;;;;;10.84;55.91;101551.09;360412;144;863789;-60
2021/09/30 06:59:05;;;;;;;14.89;9.62;;;;;;;10.84;54.94;101551.97;360551;144;856103;-59
2021/09/30 07:00:06;;;;;;;21.56;9.21;;;;;;;10.85;53.91;101556.31;360703;144;856196;-59
2021/09/30 07:01:10;;;;;;;15.50;9.61;;;;;;;10.89;55.12;101557.22;359812;146;863453;-58
2021/09/30 07:02:12;;;;;;;19.54;9.95;;;;;;;10.93;55.01;101565.08;359844;144;863708;-58
2021/09/30 07:03:14;;;;;;;19.81;9.91;;;;;;;10.99;55.01;101555.66;359697;144;863505;-59
2021/09/30 07:04:15;;;;;;;15.71;8.69;;;;;;;11.06;55.25;101560.09;356108;149;856855;-58
2021/09/30 07:05:18;;;;;;;19.52;8.56;;;;;;;11.11;54.72;101559.30;357247;147;864002;-58
2021/09/30 07:06:20;;;;;;;21.43;9.61;;;;;;;11.14;53.22;101561.09;357200;147;864331;-60
2021/09/30 07:07:22;;;;;;;14.30;8.61;;;;;;;11.17;53.74;101562.87;355582;147;856353;-58
2021/09/30 07:08:24;;;;;;;12.04;6.89;;;;;;;;;;358091;150;856369;-58
2021/09/30 07:09:25;;;;;;;11.92;6.79;;;;;;;;;;352747;147;864000;-59
2021/09/30 07:10:28;;;;;;;9.69;6.00;;;;;;;;;;356962;150;856462;-59
2021/09/30 07:11:29;;;;;;;13.43;6.73;;;;;;;;;;356382;147;856566;-59
2021/09/30 07:12:31;;;;;;;9.13;6.02;;;;;;;;;;356237;149;856346;-59
2021/09/30 07:13:32;;;;;;;8.50;5.55;;;;;;;;;;357586;147;856328;-58
2021/09/30 07:14:34;;;;;;;13.43;6.56;;;;;;;;;;357566;147;863930;-59
2021/09/30 07:15:36;;;;;;;10.81;6.58;;;;;;;;;;357009;147;856227;-59
2021/09/30 07:16:37;;;;;;;9.42;4.93;;;;;;;;;;355706;147;856229;-59
2021/09/30 07:17:39;;;;;;;10.56;6.03;;;;;;;;;;356437;150;864499;-59
2021/09/30 07:18:40;;;;;;;10.56;6.59;;;;;;;;;;356356;149;856751;-59
2021/09/30 07:19:42;;;;;;;10.35;6.72;;;;;;;;;;356558;147;856205;-59
2021/09/30 07:20:53;;;;;;;12.90;6.73;;;;;;;;;;355904;147;856173;-59
2021/09/30 07:21:55;;;;;;;11.37;5.51;;;;;;;;;;356250;147;856830;-60
2021/09/30 07:22:56;;;;;;;8.10;5.74;;;;;;;;;;356996;147;856626;-62
2021/09/30 07:23:58;;;;;;;8.31;5.44;;;;;;;;;;356764;147;863899;-59
2021/09/30 07:25:00;;;;;;;8.66;4.65;;;;;;;;;;356420;147;856520;-59
2021/09/30 07:26:01;;;;;;;6.39;3.53;;;;;;;;;;356492;147;856756;-59
2021/09/30 07:27:04;;;;;;;7.88;3.66;;;;;;;;;;356630;147;856098;-60
2021/09/30 07:28:05;;;;;;;6.55;4.29;;;;;;;;;;357292;150;856167;-59
2021/09/30 07:29:07;;;;;;;6.89;5.07;;;;;;;;;;356397;147;856556;-59
2021/09/30 07:30:09;;;;;;;7.64;4.54;;;;;;;;;;356634;149;863621;-60
2021/09/30 07:31:11;;;;;;;6.96;4.33;;;;;;;;;;356017;147;863732;-59
2021/09/30 07:32:12;;;;;;;6.90;4.50;;;;;;;;;;356590;147;856393;-59
2021/09/30 07:33:14;;;;;;;8.44;3.78;;;;;;;;;;357170;147;856286;-60
2021/09/30 07:34:15;;;;;;;7.01;4.29;;;;;;;;;;357241;147;856565;-59
2021/09/30 07:35:17;;;;;;;8.50;4.33;;;;;;;;;;357088;147;863539;-60
2021/09/30 07:36:20;;;;;;;9.53;6.14;;;;;;;;;;357562;147;856670;-60
2021/09/30 07:37:22;;;;;;;10.27;7.20;;;;;;;;;;356899;147;863909;-59
2021/09/30 07:38:24;;;;;;;9.31;6.52;;;;;;;;;;357002;147;856431;-60
2021/09/30 07:39:28;;;;;;;10.41;6.65;;;;;;;;;;356177;147;863907;-59
2021/09/30 07:40:31;;;;;;;15.00;6.58;;;;;;;;;;356187;147;863926;-59
2021/09/30 07:41:33;;;;;;;9.90;5.40;;;;;;;;;;357560;147;856706;-60
2021/09/30 07:42:34;;;;;;;11.87;5.40;;;;;;;;;;357577;147;863806;-60
2021/09/30 07:43:36;;;;;;;8.81;5.66;;;;;;;;;;344006;155;856177;-60
2021/09/30 07:44:37;;;;;;;9.47;5.50;;;;;;;;;;362561;147;863576;-59
2021/09/30 07:45:39;;;;;;;9.49;6.01;;;;;;;;;;355838;150;856220;-59
2021/09/30 07:46:41;;;;;;;6.89;4.65;;;;;;;;;;357911;147;856151;-59
2021/09/30 07:47:42;;;;;;;5.16;3.56;;;;;;;;;;356865;149;864239;-60
2021/09/30 07:48:44;;;;;;;4.44;3.49;;;;;;;;;;358034;150;856672;-60
2021/09/30 07:49:45;;;;;;;7.46;4.34;;;;;;;;;;356691;150;863742;-60
2021/09/30 07:50:48;;;;;;;8.63;5.23;;;;;;;;;;356707;149;856877;-60
2021/09/30 07:51:49;;;;;;;12.46;7.24;;;;;;;;;;358320;149;857292;-60
2021/09/30 07:52:51;;;;;;;10.04;6.14;;;;;;;;;;356543;147;864428;-60
2021/09/30 07:53:52;;;;;;;14.97;6.84;;;;;;;;;;357149;147;856628;-60
2021/09/30 07:54:55;;;;;;;17.54;7.22;;;;;;;;;;350177;150;863744;-59
2021/09/30 07:55:56;;;;;;;11.46;6.31;;;;;;;;;;354578;150;856302;-60
2021/09/30 07:56:58;;;;;;;9.54;6.59;;;;;;;;;;358553;147;856047;-60
2021/09/30 07:57:59;;;;;;;7.71;5.24;;;;;;;;;;357493;149;863772;-60
2021/09/30 07:59:01;;;;;;;12.74;5.00;;;;;;;;;;355563;150;856143;-60
2021/09/30 08:00:03;;;;;;;8.61;5.40;;;;;;;;;;353721;147;856305;-60
2021/09/30 08:01:05;;;;;;;9.61;5.88;;;;;;;;;;356077;147;856251;-59
2021/09/30 08:02:06;;;;;;;10.69;6.04;;;;;;;;;;354720;149;856145;-59
2021/09/30 08:03:08;;;;;;;9.75;6.26;;;;;;;;;;354372;150;863759;-60
2021/09/30 08:04:09;;;;;;;11.36;6.33;;;;;;;;;;356141;149;857043;-59
2021/09/30 08:05:11;;;;;;;7.89;5.86;;;;;;;;;;357049;149;863808;-59
2021/09/30 08:06:14;;;;;;;8.43;6.83;;;;;;;;;;358420;150;856308;-59
2021/09/30 08:07:16;;;;;;;13.23;6.78;;;;;;;;;;358458;147;856217;-59
2021/09/30 08:08:17;;;;;;;10.27;6.34;;;;;;;;;;350524;150;863823;-59
2021/09/30 08:09:19;;;;;;;10.10;6.36;;;;;;;;;;345648;153;863879;-59
2021/09/30 08:10:21;;;;;;;12.06;6.70;;;;;;;;;;359150;147;857948;-59
2021/09/30 08:11:23;;;;;;;10.74;5.79;;;;;;;;;;357726;147;856589;-59
2021/09/30 08:12:25;;;;;;;7.82;5.49;;;;;;;;;;355940;149;858649;-58
2021/09/30 08:13:27;;;;;;;11.91;6.33;;;;;;;;;;356073;150;864308;-59
2021/09/30 08:14:28;;;;;;;12.15;6.40;;;;;;;;;;357251;147;856863;-60
2021/09/30 08:15:30;;;;;;;11.01;6.29;;;;;;;;;;355383;149;856184;-59
2021/09/30 08:16:34;;;;;;;9.74;5.76;;;;;;;;;;357311;147;856176;-60
2021/09/30 08:17:35;;;;;;;12.19;6.81;;;;;;;;;;355205;147;864302;-59
2021/09/30 08:18:37;;;;;;;14.27;6.16;;;;;;;;;;357216;147;856563;-60
2021/09/30 08:19:38;;;;;;;10.41;6.18;;;;;;;;;;357407;150;863922;-62
2021/09/30 08:20:43;;;;;;;12.30;7.55;;;;;;;;;;361484;147;863719;-60
2021/09/30 08:21:45;;;;;;;13.47;7.62;;;;;;;;;;356444;147;856299;-59
2021/09/30 08:22:47;;;;;;;10.64;6.42;;;;;;;;;;357277;149;856312;-62
2021/09/30 08:23:49;;;;;;;14.19;7.03;;;;;;;;;;356363;148;864545;-59
2021/09/30 08:24:50;;;;;;;9.32;6.43;;;;;;;;;;355283;147;856735;-58
2021/09/30 08:25:52;;;;;;;9.32;5.13;;;;;;;;;;356952;148;863803;-57
2021/09/30 08:26:54;;;;;;;12.21;6.93;;;;;;;;;;357235;149;856153;-58
2021/09/30 08:27:56;;;;;;;13.49;6.69;;;;;;;;;;355318;150;863783;-58
2021/09/30 08:28:58;;;;;;;15.41;7.31;;;;;;;;;;357668;147;856126;-59
2021/09/30 08:30:00;;;;;;;11.85;7.01;;;;;;;;;;353892;147;856563;-58
2021/09/30 08:31:03;;;;;;;15.14;6.41;;;;;;;;;;356050;147;856194;-60
2021/09/30 08:32:05;;;;;;;11.80;6.37;;;;;;;;;;356173;150;863840;-59
2021/09/30 08:33:08;;;;;;;11.78;5.81;;;;;;;;;;356261;149;864325;-60
2021/09/30 08:34:10;;;;;;;18.37;7.55;;;;;;;;;;354740;150;863816;-61
2021/09/30 08:35:11;;;;;;;13.46;6.71;;;;;;;;;;356943;147;856313;-61
2021/09/30 08:36:13;;;;;;;19.03;6.92;;;;;;;;;;357619;147;856495;-61
2021/09/30 08:37:15;;;;;;;14.31;8.47;;;;;;;;;;356514;150;856590;-58
2021/09/30 08:38:17;;;;;;;16.69;9.61;;;;;;;;;;357247;147;864453;-60
2021/09/30 08:39:18;;;;;;;13.81;8.73;;;;;;;;;;356055;150;856678;-58